Time;durP1;ratioP1;P1;durP2;ratioP2;P2;SDS_P1;SDS_P2;PMS_P1;PMS_P2;Temp;Humidity;BMP_temperature;BMP_pressure;BME280_temperature;BME280_humidity;BME280_pressure;Samples;Min_cycle;Max_cycle;Signal;HPM_P1;HPM_P2
2023/06/05 00:02:02;;;;;;;9.30;5.38;;;12.90;99.90;;;;;;5019583;28;20167;-77
2023/06/05 00:04:28;;;;;;;7.38;4.75;;;12.90;99.90;;;;;;5014561;28;20129;-77
2023/06/05 00:06:54;;;;;;;10.35;4.68;;;12.90;99.90;;;;;;5027969;28;20034;-78
2023/06/05 00:09:20;;;;;;;8.45;4.70;;;12.90;99.90;;;;;;5027802;28;20168;-78
2023/06/05 00:11:46;;;;;;;12.05;4.72;;;12.90;99.90;;;;;;5026575;28;20121;-84
2023/06/05 00:14:11;;;;;;;8.13;4.50;;;12.90;99.90;;;;;;5010240;28;20112;-79
2023/06/05 00:16:38;;;;;;;11.95;5.07;;;12.90;99.90;;;;;;5016720;28;20037;-77
2023/06/05 00:19:03;;;;;;;9.85;4.45;;;13.00;99.90;;;;;;5014003;28;20040;-77
2023/06/05 00:21:29;;;;;;;8.10;4.72;;;13.00;99.90;;;;;;5014032;28;20041;-79
2023/06/05 00:23:55;;;;;;;11.88;4.85;;;13.00;99.90;;;;;;5023375;28;20099;-78
2023/06/05 00:26:21;;;;;;;7.47;4.57;;;12.90;99.90;;;;;;5019543;28;20037;-79
2023/06/05 00:28:47;;;;;;;10.05;4.65;;;12.90;99.90;;;;;;5026539;28;20037;-83
2023/06/05 00:31:13;;;;;;;9.98;4.78;;;12.80;99.90;;;;;;5021805;28;20095;-78
2023/06/05 00:33:39;;;;;;;8.68;4.97;;;12.80;99.90;;;;;;5023529;28;20033;-81
2023/06/05 00:36:05;;;;;;;9.00;4.68;;;12.60;99.90;;;;;;5021519;28;20041;-78
2023/06/05 00:38:31;;;;;;;8.93;4.90;;;12.50;99.90;;;;;;5024895;28;20450;-79
2023/06/05 00:40:57;;;;;;;10.27;4.88;;;12.60;99.90;;;;;;5016451;28;20042;-78
2023/06/05 00:43:22;;;;;;;8.35;4.63;;;12.60;99.90;;;;;;5017980;28;20018;-77
2023/06/05 00:45:50;;;;;;;9.15;5.32;;;12.50;99.90;;;;;;5030362;28;20049;-83
2023/06/05 00:48:16;;;;;;;9.00;4.85;;;12.50;99.90;;;;;;5029565;28;20037;-78
2023/06/05 00:50:42;;;;;;;11.98;5.13;;;12.40;99.90;;;;;;5030596;28;20075;-81
2023/06/05 00:53:08;;;;;;;8.85;5.00;;;12.40;99.90;;;;;;5031048;28;20824;-78
2023/06/05 00:55:34;;;;;;;8.07;4.60;;;12.30;99.90;;;;;;5028475;28;20041;-79
2023/06/05 00:58:03;;;;;;;9.57;4.97;;;12.20;99.90;;;;;;5030389;28;20033;-79
2023/06/05 01:00:28;;;;;;;9.25;5.22;;;12.10;99.90;;;;;;5030846;28;20595;-77
2023/06/05 01:02:56;;;;;;;8.95;4.80;;;12.00;99.90;;;;;;5026560;28;20073;-79
2023/06/05 01:05:22;;;;;;;10.25;4.97;;;12.00;99.90;;;;;;5024616;28;20022;-81
2023/06/05 01:07:48;;;;;;;11.38;5.03;;;11.90;99.90;;;;;;5027099;28;20030;-83
2023/06/05 01:10:15;;;;;;;10.48;5.10;;;11.90;99.90;;;;;;5020333;28;20041;-79
2023/06/05 01:13:00;;;;;;;8.98;5.07;;;12.00;99.90;;;;;;5029981;28;20076;-78
2023/06/05 01:15:28;;;;;;;11.10;5.50;;;12.10;99.90;;;;;;5025956;28;20102;-78
2023/06/05 01:17:59;;;;;;;9.02;5.43;;;12.00;99.90;;;;;;5029486;28;20481;-78
2023/06/05 01:20:35;;;;;;;16.45;5.47;;;11.90;99.90;;;;;;5020666;28;20037;-82
2023/06/05 01:23:08;;;;;;;11.30;5.28;;;11.80;99.90;;;;;;5023989;28;20059;-79
2023/06/05 01:25:36;;;;;;;10.55;5.20;;;11.70;99.90;;;;;;5026605;28;20538;-79
2023/06/05 01:28:16;;;;;;;8.00;5.13;;;11.70;99.90;;;;;;5026893;28;20041;-78
2023/06/05 01:30:52;;;;;;;9.25;5.20;;;11.70;99.90;;;;;;5014490;28;20103;-77
2023/06/05 01:33:41;;;;;;;10.52;5.18;;;11.50;99.90;;;;;;5030232;28;20026;-79
2023/06/05 01:36:09;;;;;;;9.35;5.28;;;11.50;99.90;;;;;;5014813;28;20645;-77
2023/06/05 01:38:36;;;;;;;8.95;4.95;;;11.30;99.90;;;;;;5021515;28;20029;-78
2023/06/05 01:41:03;;;;;;;9.05;5.05;;;11.20;99.90;;;;;;5029709;28;20390;-77
2023/06/05 01:43:30;;;;;;;12.55;5.18;;;11.20;99.90;;;;;;5025924;28;20438;-79
2023/06/05 01:45:58;;;;;;;7.53;4.60;;;11.20;99.90;;;;;;5021509;28;20038;-78
2023/06/05 01:48:27;;;;;;;8.07;4.97;;;11.20;99.90;;;;;;5020289;28;20044;-78
2023/06/05 01:51:02;;;;;;;8.55;4.60;;;11.20;99.90;;;;;;5028555;28;20028;-83
2023/06/05 01:53:29;;;;;;;8.45;5.20;;;11.30;99.90;;;;;;5026095;28;20083;-79
2023/06/05 01:55:58;;;;;;;10.07;5.45;;;11.30;99.90;;;;;;5024574;28;20049;-78
2023/06/05 01:58:26;;;;;;;9.73;5.28;;;11.30;99.90;;;;;;5022618;28;20037;-79
2023/06/05 02:00:56;;;;;;;11.82;5.00;;;11.20;99.90;;;;;;5028897;28;21263;-83
2023/06/05 02:03:23;;;;;;;10.25;5.40;;;11.20;99.90;;;;;;5029213;28;20029;-78
2023/06/05 02:05:51;;;;;;;8.88;5.13;;;11.20;99.90;;;;;;5024640;28;20022;-84
2023/06/05 02:08:19;;;;;;;8.43;5.20;;;11.20;99.90;;;;;;5026356;28;20124;-78
2023/06/05 02:10:48;;;;;;;8.88;5.35;;;11.00;99.90;;;;;;5015230;28;20490;-79
2023/06/05 02:13:19;;;;;;;9.23;5.00;;;11.00;99.90;;;;;;5026635;28;20037;-79
2023/06/05 02:15:45;;;;;;;7.65;4.97;;;10.90;99.90;;;;;;5031581;28;20125;-78
2023/06/05 02:18:10;;;;;;;10.18;5.15;;;10.90;99.90;;;;;;5022544;28;20037;-78
2023/06/05 02:20:36;;;;;;;8.82;5.20;;;10.80;99.90;;;;;;5027603;28;20386;-78
2023/06/05 02:23:04;;;;;;;10.38;5.40;;;10.70;99.90;;;;;;5024199;28;20037;-77
2023/06/05 02:25:30;;;;;;;12.73;5.32;;;10.60;99.90;;;;;;5027212;28;20112;-78
2023/06/05 02:27:56;;;;;;;9.27;5.32;;;10.60;99.90;;;;;;5028319;28;20120;-78
2023/06/05 02:30:22;;;;;;;9.75;5.07;;;10.60;99.90;;;;;;5040921;28;20559;-80
2023/06/05 02:32:48;;;;;;;9.38;5.22;;;10.50;99.90;;;;;;5010313;28;20849;-78
2023/06/05 02:35:14;;;;;;;10.65;5.82;;;10.50;99.90;;;;;;5019865;28;20571;-77
2023/06/05 02:37:44;;;;;;;11.55;5.60;;;10.50;99.90;;;;;;5024328;28;20039;-79
2023/06/05 02:40:11;;;;;;;11.35;5.63;;;10.50;99.90;;;;;;5026782;28;20140;-79
2023/06/05 02:42:37;;;;;;;11.52;5.43;;;10.40;99.90;;;;;;5023876;28;20034;-79
2023/06/05 02:45:03;;;;;;;8.65;5.05;;;10.40;99.90;;;;;;5023923;28;20105;-77
2023/06/05 02:47:29;;;;;;;9.98;5.43;;;10.30;99.90;;;;;;5026672;28;20051;-77
2023/06/05 02:50:00;;;;;;;8.57;4.90;;;10.30;99.90;;;;;;5024044;28;20061;-77
2023/06/05 02:52:27;;;;;;;12.63;5.78;;;10.30;99.90;;;;;;5030084;28;20025;-77
2023/06/05 02:54:53;;;;;;;9.15;5.10;;;10.40;99.90;;;;;;5026930;28;20379;-77
2023/06/05 02:57:19;;;;;;;11.25;5.82;;;10.30;99.90;;;;;;5020392;28;20049;-77
2023/06/05 02:59:45;;;;;;;9.90;5.22;;;10.40;99.90;;;;;;5027837;28;20509;-77
2023/06/05 03:02:11;;;;;;;9.43;5.15;;;10.30;99.90;;;;;;5026706;28;20116;-77
2023/06/05 03:04:40;;;;;;;11.18;5.57;;;10.20;99.90;;;;;;5029710;28;20057;-77
2023/06/05 03:07:09;;;;;;;9.98;5.53;;;10.30;99.90;;;;;;5014586;28;20113;-77
2023/06/05 03:09:35;;;;;;;9.48;5.78;;;10.30;99.90;;;;;;5009628;28;20026;-78
2023/06/05 03:12:00;;;;;;;10.70;5.30;;;10.30;99.90;;;;;;5018548;28;20040;-78
2023/06/05 03:14:30;;;;;;;10.45;5.75;;;10.20;99.90;;;;;;5024308;28;20405;-78
2023/06/05 03:16:58;;;;;;;6.38;3.85;;;10.20;99.90;;;;;;5034490;28;20028;-78
2023/06/05 03:19:24;;;;;;;12.60;6.07;;;10.30;99.90;;;;;;5032863;28;20108;-77
2023/06/05 03:21:50;;;;;;;10.38;5.20;;;10.20;99.90;;;;;;5049296;28;20446;-77
2023/06/05 03:24:16;;;;;;;10.60;5.65;;;10.20;99.90;;;;;;5048537;28;20105;-77
2023/06/05 03:26:42;;;;;;;10.75;6.00;;;10.20;99.90;;;;;;5049357;28;20041;-77
2023/06/05 03:29:09;;;;;;;10.25;5.88;;;10.20;99.90;;;;;;5063742;28;20075;-78
2023/06/05 03:31:35;;;;;;;13.38;5.80;;;10.10;99.90;;;;;;5046669;28;20541;-77
2023/06/05 03:34:02;;;;;;;12.38;6.47;;;10.10;99.90;;;;;;5028452;28;20116;-77
2023/06/05 03:36:29;;;;;;;11.73;5.75;;;10.10;99.90;;;;;;5026799;28;20083;-77
2023/06/05 03:38:55;;;;;;;12.60;5.35;;;10.10;99.90;;;;;;5028631;28;20621;-78
2023/06/05 03:41:21;;;;;;;9.18;5.35;;;10.10;99.90;;;;;;5027242;28;20421;-77
2023/06/05 03:43:47;;;;;;;12.50;6.20;;;10.10;99.90;;;;;;5029076;28;20083;-77
2023/06/05 03:46:18;;;;;;;11.65;5.88;;;10.00;99.90;;;;;;5034994;28;20025;-77
2023/06/05 03:48:44;;;;;;;10.93;5.70;;;10.00;99.90;;;;;;5032611;28;20040;-77
2023/06/05 03:51:10;;;;;;;9.98;5.82;;;10.00;99.90;;;;;;5038925;28;20543;-77
2023/06/05 03:53:39;;;;;;;11.20;5.13;;;10.00;99.90;;;;;;5028676;28;20038;-77
2023/06/05 03:56:05;;;;;;;8.57;5.43;;;10.10;99.90;;;;;;5019271;28;20057;-77
2023/06/05 03:58:31;;;;;;;11.88;6.07;;;10.20;99.90;;;;;;5009170;28;20042;-77
2023/06/05 04:00:57;;;;;;;11.25;5.60;;;10.30;99.90;;;;;;5017375;28;20091;-78
2023/06/05 04:03:25;;;;;;;9.77;5.60;;;10.40;99.90;;;;;;5026262;28;20053;-77
2023/06/05 04:05:50;;;;;;;11.68;5.40;;;10.40;99.90;;;;;;5029465;28;20568;-77
2023/06/05 04:08:16;;;;;;;9.65;5.60;;;10.40;99.90;;;;;;5030077;28;20115;-77
2023/06/05 04:10:42;;;;;;;14.13;6.13;;;10.40;99.90;;;;;;5028700;28;20032;-77
2023/06/05 04:13:07;;;;;;;9.68;5.75;;;10.30;99.90;;;;;;5027968;28;20112;-77
2023/06/05 04:15:33;;;;;;;12.65;5.50;;;10.30;99.90;;;;;;5020809;28;20773;-77
2023/06/05 04:17:59;;;;;;;10.10;5.57;;;10.50;99.90;;;;;;5024206;28;20029;-77
2023/06/05 04:20:25;;;;;;;10.98;6.03;;;10.60;99.90;;;;;;5012116;28;20038;-77
2023/06/05 04:22:51;;;;;;;11.60;5.70;;;10.50;99.90;;;;;;5021383;28;20033;-77
2023/06/05 04:25:16;;;;;;;10.07;6.10;;;10.60;99.90;;;;;;5020152;28;20640;-77
2023/06/05 04:27:48;;;;;;;12.20;6.03;;;10.60;99.90;;;;;;5017226;28;20124;-77
2023/06/05 04:30:14;;;;;;;10.23;5.60;;;10.70;99.90;;;;;;5019385;28;20022;-77
2023/06/05 04:32:41;;;;;;;10.68;6.10;;;10.80;99.90;;;;;;5023002;28;20154;-77
2023/06/05 04:35:08;;;;;;;16.08;5.97;;;10.90;99.90;;;;;;5021590;28;20471;-77
2023/06/05 04:37:37;;;;;;;9.85;5.65;;;11.00;99.90;;;;;;5040005;28;20030;-77
2023/06/05 04:40:09;;;;;;;8.40;5.65;;;11.10;99.90;;;;;;5041737;28;20505;-77
2023/06/05 04:42:36;;;;;;;13.00;5.57;;;11.20;99.90;;;;;;5031073;28;20025;-76
2023/06/05 04:45:04;;;;;;;10.73;6.13;;;11.10;99.90;;;;;;5046951;28;20091;-77
2023/06/05 04:47:31;;;;;;;11.57;5.80;;;11.20;99.90;;;;;;5045547;28;20033;-77
2023/06/05 04:50:03;;;;;;;13.35;6.00;;;11.30;99.90;;;;;;5028098;28;20036;-77
2023/06/05 04:52:33;;;;;;;11.63;5.43;;;11.50;99.90;;;;;;5026697;28;20028;-77
2023/06/05 04:55:02;;;;;;;12.75;5.93;;;11.80;99.90;;;;;;5027843;28;20759;-77
2023/06/05 04:57:29;;;;;;;10.30;5.80;;;12.00;99.90;;;;;;5037972;28;20029;-77
2023/06/05 04:59:55;;;;;;;11.15;5.97;;;12.10;99.90;;;;;;5027392;28;20429;-77
2023/06/05 05:02:21;;;;;;;10.77;5.85;;;12.20;99.90;;;;;;5027905;28;20025;-77
2023/06/05 05:04:47;;;;;;;10.85;6.00;;;12.40;99.90;;;;;;5008475;28;20034;-77
2023/06/05 05:07:16;;;;;;;11.13;6.03;;;12.50;99.90;;;;;;5031394;28;20029;-77
2023/06/05 05:09:42;;;;;;;9.75;5.63;;;12.60;99.90;;;;;;5032519;28;20025;-77
2023/06/05 05:12:09;;;;;;;11.60;5.60;;;12.80;99.90;;;;;;5025776;28;20048;-77
2023/06/05 05:14:35;;;;;;;11.07;5.65;;;12.90;99.90;;;;;;5025203;28;20871;-76
2023/06/05 05:17:01;;;;;;;10.75;5.13;;;13.00;99.90;;;;;;5027524;28;20124;-77
2023/06/05 05:19:27;;;;;;;10.32;5.18;;;12.90;99.90;;;;;;5028957;28;20039;-77
2023/06/05 05:21:52;;;;;;;9.18;5.70;;;13.10;99.90;;;;;;5028062;28;20109;-77
2023/06/05 05:24:18;;;;;;;12.20;5.35;;;13.20;99.90;;;;;;5044236;28;20033;-77
2023/06/05 05:26:44;;;;;;;10.45;5.30;;;13.40;99.90;;;;;;5043789;28;20048;-77
2023/06/05 05:29:10;;;;;;;11.05;5.10;;;13.60;99.90;;;;;;5045220;28;20057;-77
2023/06/05 05:31:36;;;;;;;8.07;5.18;;;13.90;99.90;;;;;;5047763;28;20379;-77
2023/06/05 05:34:01;;;;;;;8.63;5.43;;;14.10;99.90;;;;;;5026353;28;20124;-77
2023/06/05 05:36:27;;;;;;;10.23;5.45;;;14.00;99.90;;;;;;5028819;28;20090;-77
2023/06/05 05:38:54;;;;;;;16.88;5.43;;;13.90;99.90;;;;;;5030122;28;20051;-77
2023/06/05 05:41:21;;;;;;;9.93;5.55;;;13.90;99.90;;;;;;5020059;28;20044;-77
2023/06/05 05:43:46;;;;;;;9.35;5.32;;;14.00;99.90;;;;;;5038056;28;20033;-76
2023/06/05 05:46:12;;;;;;;10.07;5.10;;;14.20;99.90;;;;;;5045802;28;20079;-77
2023/06/05 05:48:38;;;;;;;11.95;4.60;;;14.40;99.90;;;;;;5037853;28;20069;-76
2023/06/05 05:51:05;;;;;;;9.80;4.70;;;14.70;99.90;;;;;;5029313;28;20030;-77
2023/06/05 05:53:31;;;;;;;7.55;4.78;;;14.90;99.90;;;;;;5027299;28;20029;-77
2023/06/05 05:55:57;;;;;;;9.90;4.90;;;15.10;99.90;;;;;;5011135;28;20096;-76
2023/06/05 05:58:23;;;;;;;10.18;4.47;;;15.30;99.90;;;;;;5019741;28;20645;-76
2023/06/05 06:00:48;;;;;;;7.88;4.57;;;15.40;99.90;;;;;;5029631;28;20402;-76
2023/06/05 06:03:15;;;;;;;7.57;4.43;;;15.70;99.90;;;;;;5034379;28;20115;-77
2023/06/05 06:05:41;;;;;;;8.15;4.20;;;15.90;99.90;;;;;;5027310;28;20545;-76
2023/06/05 06:08:07;;;;;;;11.43;4.60;;;16.00;99.90;;;;;;5036053;28;20036;-77
2023/06/05 06:10:33;;;;;;;9.38;4.40;;;16.10;99.90;;;;;;5035637;28;20032;-77
2023/06/05 06:12:59;;;;;;;6.72;4.10;;;16.20;99.90;;;;;;5028961;28;20030;-77
2023/06/05 06:15:27;;;;;;;7.38;4.13;;;16.40;99.90;;;;;;5027149;28;20014;-76
2023/06/05 06:17:52;;;;;;;6.70;3.70;;;16.50;99.90;;;;;;5031191;28;20029;-76
2023/06/05 06:20:18;;;;;;;8.95;4.20;;;16.60;99.90;;;;;;5029022;28;20034;-76
2023/06/05 06:22:44;;;;;;;6.63;3.83;;;16.70;99.90;;;;;;5027620;28;20092;-75
2023/06/05 06:25:15;;;;;;;8.82;4.25;;;16.90;99.90;;;;;;5024482;28;20448;-76
2023/06/05 06:27:43;;;;;;;6.75;4.15;;;16.90;99.90;;;;;;5030609;28;20158;-75
2023/06/05 06:30:10;;;;;;;7.32;3.78;;;16.90;99.90;;;;;;5030941;28;20041;-75
2023/06/05 06:32:35;;;;;;;6.95;4.40;;;17.00;99.90;;;;;;5010681;28;20034;-74
2023/06/05 06:35:01;;;;;;;9.38;3.70;;;17.20;99.90;;;;;;5010410;28;20036;-75
2023/06/05 06:37:28;;;;;;;5.82;3.33;;;17.20;99.90;;;;;;5009869;28;20032;-75
2023/06/05 06:39:53;;;;;;;12.25;3.80;;;17.40;99.90;;;;;;5018672;28;20115;-75
2023/06/05 06:42:22;;;;;;;10.00;4.10;;;17.60;99.90;;;;;;5029612;28;20457;-74
2023/06/05 06:44:48;;;;;;;15.55;4.20;;;17.80;99.20;;;;;;5030066;28;20159;-75
2023/06/05 06:47:13;;;;;;;6.85;4.03;;;17.90;98.20;;;;;;5029091;28;20124;-76
2023/06/05 06:49:39;;;;;;;8.43;3.50;;;17.90;98.80;;;;;;5029966;28;20545;-75
2023/06/05 06:52:05;;;;;;;8.23;3.75;;;18.00;98.30;;;;;;5030167;28;20032;-76
2023/06/05 06:54:32;;;;;;;9.40;3.90;;;18.10;98.10;;;;;;5029551;28;20128;-75
2023/06/05 06:56:59;;;;;;;11.93;3.88;;;18.20;98.20;;;;;;5031677;28;20497;-75
2023/06/05 06:59:24;;;;;;;7.78;4.15;;;18.20;97.50;;;;;;5064340;28;20942;-75
2023/06/05 07:02:17;;;;;;;12.27;4.68;;;18.00;97.50;;;;;;5049869;28;20028;-74
2023/06/05 07:04:44;;;;;;;33.45;5.47;;;17.70;97.90;;;;;;5049479;28;20492;-74
2023/06/05 07:07:11;;;;;;;8.93;4.07;;;17.60;98.70;;;;;;5049050;28;20029;-76
2023/06/05 07:09:37;;;;;;;10.55;3.92;;;17.60;99.70;;;;;;5047460;28;20031;-75
2023/06/05 07:12:05;;;;;;;9.77;4.10;;;17.70;99.30;;;;;;5026260;28;20137;-75
2023/06/05 07:14:34;;;;;;;7.05;3.90;;;17.90;99.60;;;;;;5036274;28;20136;-75
2023/06/05 07:17:00;;;;;;;7.05;3.67;;;18.00;99.50;;;;;;5034910;28;20386;-76
2023/06/05 07:19:31;;;;;;;10.48;3.88;;;18.10;99.90;;;;;;5024463;28;20762;-76
2023/06/05 07:21:57;;;;;;;7.38;3.95;;;18.30;99.90;;;;;;5029218;28;20029;-76
2023/06/05 07:24:24;;;;;;;11.00;3.97;;;18.30;99.20;;;;;;5023955;28;20025;-76
2023/06/05 07:26:55;;;;;;;7.70;4.00;;;18.10;99.40;;;;;;5040428;28;20870;-76
2023/06/05 07:29:21;;;;;;;;;;;18.40;99.50;;;;;;5024799;28;20033;-76
2023/06/05 07:31:48;;;;;;;8.57;4.15;;;18.80;98.60;;;;;;5023373;28;20396;-75
2023/06/05 07:34:14;;;;;;;5.90;4.00;;;19.00;98.40;;;;;;5020721;28;20091;-76
2023/06/05 07:36:41;;;;;;;6.10;4.05;;;19.30;97.40;;;;;;5024047;28;20040;-76
2023/06/05 07:39:07;;;;;;;11.48;4.20;;;19.50;96.10;;;;;;5024907;28;20045;-76
2023/06/05 07:41:32;;;;;;;14.73;4.30;;;19.70;96.30;;;;;;5041352;28;20045;-76
2023/06/05 07:43:58;;;;;;;7.57;4.28;;;19.90;96.20;;;;;;5024900;28;20141;-75
2023/06/05 07:46:24;;;;;;;11.50;4.40;;;20.00;95.60;;;;;;5022726;28;20148;-76
2023/06/05 07:48:49;;;;;;;8.13;4.32;;;20.20;95.00;;;;;;5026604;28;20496;-76
2023/06/05 07:51:17;;;;;;;12.00;4.90;;;20.50;95.80;;;;;;5026242;28;20026;-75
2023/06/05 07:53:44;;;;;;;9.60;4.57;;;20.80;95.00;;;;;;5024563;28;20386;-75
2023/06/05 07:56:11;;;;;;;8.55;4.95;;;20.90;94.50;;;;;;5026096;28;20059;-76
2023/06/05 07:58:38;;;;;;;8.52;4.80;;;21.10;94.80;;;;;;5024348;28;20065;-75
2023/06/05 08:01:06;;;;;;;12.40;4.63;;;21.10;94.20;;;;;;5027890;28;20063;-75
2023/06/05 08:03:32;;;;;;;10.20;4.72;;;21.20;93.70;;;;;;5037218;28;20100;-75
2023/06/05 08:05:58;;;;;;;8.70;4.97;;;21.30;93.60;;;;;;5048553;28;20116;-75
2023/06/05 08:08:24;;;;;;;16.58;5.35;;;21.40;93.40;;;;;;5047896;28;20033;-76
2023/06/05 08:10:51;;;;;;;10.88;4.95;;;21.50;93.30;;;;;;5032091;28;20100;-76
2023/06/05 08:13:16;;;;;;;13.02;5.05;;;21.40;92.50;;;;;;5032276;28;20055;-75
2023/06/05 08:15:42;;;;;;;10.40;4.95;;;21.50;92.70;;;;;;5026476;28;20466;-76
2023/06/05 08:18:08;;;;;;;8.75;5.05;;;21.50;92.80;;;;;;5026421;28;20037;-75
2023/06/05 08:20:34;;;;;;;8.13;5.13;;;21.70;91.70;;;;;;5021073;28;21073;-76
2023/06/05 08:23:01;;;;;;;13.63;5.07;;;22.00;92.90;;;;;;5024946;28;20033;-75
2023/06/05 08:25:27;;;;;;;10.85;5.05;;;22.10;91.00;;;;;;5022905;28;20038;-76
2023/06/05 08:27:53;;;;;;;9.70;5.07;;;22.30;90.50;;;;;;5030318;28;20040;-76
2023/06/05 08:30:19;;;;;;;8.77;4.97;;;22.10;90.60;;;;;;5020372;28;20025;-76
2023/06/05 08:32:45;;;;;;;10.32;5.10;;;22.20;91.10;;;;;;5020896;28;20079;-76
2023/06/05 08:35:12;;;;;;;10.73;5.35;;;22.30;91.00;;;;;;5024535;28;20068;-76
2023/06/05 08:37:38;;;;;;;9.68;5.43;;;22.50;90.10;;;;;;5024527;28;21198;-73
2023/06/05 08:40:11;;;;;;;12.57;5.30;;;22.70;89.20;;;;;;5025248;28;20026;-73
2023/06/05 08:42:38;;;;;;;8.27;5.00;;;22.80;90.30;;;;;;5022254;28;20078;-74
2023/06/05 08:45:08;;;;;;;8.02;5.70;;;22.80;89.60;;;;;;5030588;28;20044;-73
2023/06/05 08:47:36;;;;;;;11.23;5.50;;;22.80;87.00;;;;;;5021138;28;20733;-73
2023/06/05 08:50:06;;;;;;;9.73;5.05;;;22.60;89.40;;;;;;5020793;28;20859;-73
2023/06/05 08:52:38;;;;;;;11.15;5.68;;;22.80;90.40;;;;;;5021514;28;20291;-77
2023/06/05 08:55:05;;;;;;;10.80;5.53;;;23.10;90.20;;;;;;5020691;28;20624;-77
2023/06/05 08:57:32;;;;;;;11.05;5.10;;;23.10;86.10;;;;;;5020001;28;20068;-77
2023/06/05 09:00:00;;;;;;;11.70;5.25;;;23.30;86.50;;;;;;5016503;28;20703;-77
2023/06/05 09:02:26;;;;;;;10.90;5.45;;;23.50;87.40;;;;;;5023683;28;20033;-76
2023/06/05 09:04:51;;;;;;;8.63;5.40;;;23.60;85.60;;;;;;5022596;28;20040;-77
2023/06/05 09:07:18;;;;;;;10.20;5.05;;;23.50;87.30;;;;;;5025810;28;20075;-78
2023/06/05 09:09:44;;;;;;;10.63;5.53;;;23.80;85.70;;;;;;5023286;28;20037;-77
2023/06/05 09:12:09;;;;;;;7.68;5.40;;;23.60;81.50;;;;;;5026786;28;20763;-76
2023/06/05 09:14:35;;;;;;;9.27;5.38;;;23.60;82.90;;;;;;5026896;28;20025;-77
2023/06/05 09:17:03;;;;;;;11.45;5.30;;;23.50;81.00;;;;;;5034131;28;20044;-76
2023/06/05 09:19:39;;;;;;;7.85;4.93;;;23.10;82.90;;;;;;5029458;28;20040;-77
2023/06/05 09:22:10;;;;;;;14.68;5.72;;;23.20;84.00;;;;;;5025416;28;20033;-77
2023/06/05 09:24:37;;;;;;;14.88;5.53;;;23.30;81.60;;;;;;5032898;28;20029;-77
2023/06/05 09:27:08;;;;;;;8.38;5.65;;;23.20;83.70;;;;;;5034388;28;20448;-76
2023/06/05 09:29:34;;;;;;;11.85;5.50;;;23.10;82.70;;;;;;5036125;28;20056;-77
2023/06/05 09:32:05;;;;;;;12.32;5.38;;;23.40;82.10;;;;;;5030860;28;20080;-77
2023/06/05 09:34:39;;;;;;;8.85;5.15;;;23.80;80.80;;;;;;5028236;28;20420;-77
2023/06/05 09:37:12;;;;;;;7.32;4.60;;;24.20;81.20;;;;;;5028798;28;20040;-77
2023/06/05 09:39:40;;;;;;;11.30;4.68;;;24.50;79.20;;;;;;5042619;28;20907;-82
2023/06/05 09:42:06;;;;;;;8.20;5.05;;;24.80;77.70;;;;;;5011698;28;20037;-84
2023/06/05 09:44:33;;;;;;;6.63;4.82;;;25.10;75.50;;;;;;5023540;28;20122;-82
2023/06/05 09:47:08;;;;;;;31.25;6.60;;;25.20;72.30;;;;;;5044318;28;20045;-80
2023/06/05 09:49:42;;;;;;;14.52;5.45;;;25.20;71.80;;;;;;5027923;28;20025;-83
2023/06/05 09:52:14;;;;;;;10.20;5.28;;;25.00;68.80;;;;;;5027112;28;20037;-84
2023/06/05 09:54:44;;;;;;;10.65;5.05;;;24.70;73.00;;;;;;5029632;28;20053;-84
2023/06/05 09:57:13;;;;;;;7.53;4.95;;;24.70;72.20;;;;;;5031171;28;20033;-82
2023/06/05 09:59:51;;;;;;;11.05;5.22;;;24.80;70.20;;;;;;5045283;28;20513;-85
2023/06/05 10:02:17;;;;;;;9.70;5.10;;;25.10;70.70;;;;;;5030793;28;20025;-81
2023/06/05 10:04:48;;;;;;;8.23;5.22;;;25.00;69.40;;;;;;5029184;28;20026;-82
2023/06/05 10:07:15;;;;;;;8.02;4.72;;;24.80;69.30;;;;;;5028326;28;20037;-82
2023/06/05 10:09:42;;;;;;;10.95;4.70;;;24.70;68.70;;;;;;5022526;28;20030;-82
2023/06/05 10:12:09;;;;;;;9.20;5.10;;;25.00;69.80;;;;;;5030413;28;20033;-84
2023/06/05 10:14:36;;;;;;;6.97;4.85;;;25.40;69.80;;;;;;5021442;28;20025;-84
2023/06/05 10:17:02;;;;;;;11.63;5.00;;;25.70;67.90;;;;;;5039026;28;20087;-83
2023/06/05 10:19:29;;;;;;;10.20;4.70;;;25.50;66.90;;;;;;5018097;28;20037;-83
2023/06/05 10:21:55;;;;;;;14.23;4.55;;;25.80;66.40;;;;;;5018822;28;20088;-81
2023/06/05 10:24:26;;;;;;;7.72;5.03;;;26.10;65.70;;;;;;5009858;28;20546;-79
2023/06/05 10:27:07;;;;;;;11.48;5.00;;;26.30;64.50;;;;;;5025179;28;20057;-77
2023/06/05 10:29:49;;;;;;;9.65;5.30;;;25.60;62.10;;;;;;5028914;28;20030;-81
2023/06/05 10:32:42;;;;;;;12.93;5.68;;;25.40;66.30;;;;;;5029281;28;20631;-81
2023/06/05 10:35:32;;;;;;;13.90;5.72;;;25.40;65.30;;;;;;5030616;28;20033;-80
2023/06/05 10:38:10;;;;;;;10.32;5.15;;;25.80;66.70;;;;;;5017143;28;20034;-79
2023/06/05 10:40:36;;;;;;;7.05;4.80;;;26.20;59.80;;;;;;5027325;28;20037;-79
2023/06/05 10:43:27;;;;;;;8.57;5.15;;;26.30;60.40;;;;;;5029587;28;20114;-79
2023/06/05 10:45:53;;;;;;;7.18;5.25;;;26.40;62.10;;;;;;5016573;28;20057;-79
2023/06/05 10:48:19;;;;;;;11.50;5.40;;;26.40;59.80;;;;;;5010587;28;20030;-79
2023/06/05 10:50:45;;;;;;;11.00;5.40;;;26.00;60.70;;;;;;5011123;28;20041;-76
2023/06/05 10:53:42;;;;;;;6.93;5.30;;;25.60;62.60;;;;;;5011738;28;20076;-79
2023/06/05 10:56:08;;;;;;;12.77;5.22;;;24.90;62.50;;;;;;5029504;28;20437;-80
2023/06/05 10:58:36;;;;;;;9.55;5.50;;;24.90;66.50;;;;;;5027743;28;20048;-80
2023/06/05 11:01:20;;;;;;;11.70;5.93;;;25.30;63.50;;;;;;5048027;28;20405;-80
2023/06/05 11:03:59;;;;;;;8.80;5.50;;;25.50;62.10;;;;;;5038949;28;20025;-79
2023/06/05 11:06:26;;;;;;;7.93;5.28;;;25.90;62.50;;;;;;5048888;28;20033;-77
2023/06/05 11:09:14;;;;;;;10.27;5.70;;;26.10;62.50;;;;;;5038319;28;20044;-78
2023/06/05 11:12:00;;;;;;;8.57;5.30;;;25.90;58.90;;;;;;5029248;28;20025;-78
2023/06/05 11:14:47;;;;;;;13.10;5.57;;;25.20;61.50;;;;;;5029265;28;20036;-82
2023/06/05 11:17:41;;;;;;;12.45;5.53;;;25.30;67.70;;;;;;5021019;28;20025;-80
2023/06/05 11:20:11;;;;;;;10.43;5.85;;;25.60;64.30;;;;;;5010622;28;20486;-78
2023/06/05 11:22:52;;;;;;;10.80;4.97;;;25.90;67.10;;;;;;5024980;28;20386;-79
2023/06/05 11:25:21;;;;;;;11.55;5.38;;;25.90;63.30;;;;;;5023005;28;20041;-79
2023/06/05 11:28:12;;;;;;;8.30;5.70;;;26.10;63.20;;;;;;5011780;28;20037;-80
2023/06/05 11:30:42;;;;;;;11.57;5.50;;;26.10;63.00;;;;;;5043006;28;20051;-78
2023/06/05 11:33:12;;;;;;;14.70;5.30;;;26.50;62.20;;;;;;5027581;28;20038;-78
2023/06/05 11:35:38;;;;;;;12.15;5.43;;;26.30;60.70;;;;;;5023886;28;20041;-78
2023/06/05 11:38:12;;;;;;;7.90;5.40;;;26.30;59.60;;;;;;5028012;28;20623;-78
2023/06/05 11:40:39;;;;;;;8.15;5.25;;;26.50;58.70;;;;;;5024401;28;20047;-77
2023/06/05 11:43:06;;;;;;;10.82;5.28;;;26.90;58.70;;;;;;5026959;28;20393;-76
2023/06/05 11:45:34;;;;;;;9.40;5.55;;;27.50;57.50;;;;;;5029714;28;20083;-78
2023/06/05 11:48:07;;;;;;;14.10;6.18;;;27.40;56.00;;;;;;5028969;28;20025;-78
2023/06/05 11:50:32;;;;;;;15.77;6.47;;;27.40;55.80;;;;;;5027712;28;20097;-78
2023/06/05 11:53:05;;;;;;;8.57;5.53;;;27.40;53.90;;;;;;5029189;28;20025;-78
2023/06/05 11:56:16;;;;;;;11.65;5.80;;;26.90;55.60;;;;;;5028260;28;20500;-78
2023/06/05 11:58:25;;;;;;;8.50;5.60;;;27.00;60.00;;;;;;5036340;28;20088;-78
2023/06/05 12:01:04;;;;;;;11.15;6.13;;;26.60;61.20;;;;;;5029173;28;20490;-77
2023/06/05 12:03:32;;;;;;;15.70;5.82;;;26.30;62.00;;;;;;5025367;28;20105;-77
2023/06/05 12:06:00;;;;;;;11.65;6.10;;;26.20;64.80;;;;;;5028829;28;20025;-74
2023/06/05 12:08:37;;;;;;;9.25;6.05;;;26.70;62.70;;;;;;5025690;28;20037;-76
2023/06/05 12:11:04;;;;;;;10.55;5.78;;;27.20;58.20;;;;;;5029099;28;20029;-75
2023/06/05 12:14:06;;;;;;;8.85;5.68;;;27.30;59.50;;;;;;5028056;28;20052;-76
2023/06/05 12:16:31;;;;;;;8.20;5.68;;;27.10;58.30;;;;;;5004191;28;20026;-76
2023/06/05 12:18:57;;;;;;;9.20;5.50;;;26.20;57.50;;;;;;5024143;28;20490;-76
2023/06/05 12:21:25;;;;;;;9.40;6.22;;;25.80;57.40;;;;;;5027985;28;20029;-76
2023/06/05 12:23:52;;;;;;;15.50;6.45;;;25.40;59.50;;;;;;5047626;28;20021;-76
2023/06/05 12:26:17;;;;;;;9.85;5.72;;;25.70;59.50;;;;;;5048577;28;20043;-75
2023/06/05 12:28:46;;;;;;;11.82;5.50;;;26.30;57.50;;;;;;5062927;28;20572;-76
2023/06/05 12:31:33;;;;;;;9.73;5.65;;;26.80;56.50;;;;;;5048671;28;20056;-76
2023/06/05 12:33:59;;;;;;;9.50;5.63;;;27.10;56.90;;;;;;5041418;28;20136;-76
2023/06/05 12:36:24;;;;;;;14.30;5.75;;;27.50;55.40;;;;;;5048609;28;20123;-76
2023/06/05 12:38:50;;;;;;;7.95;5.22;;;27.60;53.90;;;;;;5048097;28;20037;-78
2023/06/05 12:41:16;;;;;;;8.80;5.82;;;27.30;55.00;;;;;;5049582;28;20652;-75
2023/06/05 12:43:41;;;;;;;11.63;5.40;;;26.90;55.80;;;;;;5052109;28;20033;-75
2023/06/05 12:46:11;;;;;;;11.35;5.53;;;26.60;58.00;;;;;;5052497;28;20107;-75
2023/06/05 12:48:40;;;;;;;11.32;5.53;;;26.60;58.70;;;;;;5042462;28;20037;-75
2023/06/05 12:51:06;;;;;;;16.10;5.88;;;26.90;57.20;;;;;;5032484;28;20379;-75